NCAR-RAP Real-Time Weather Data

Output produced by METARs form (23 February 2020  02:03 UTC)
found at http://weather.rap.ucar.edu/surface/
 
KCMH 230151Z 17004KT 10SM CLR 02/M10 A3025 RMK AO2 SLP250 T00221100
KCMH 230051Z 18004KT 10SM CLR 03/M09 A3026 RMK AO2 SLP255 T00331094
KCMH 222351Z 20004KT 10SM CLR 04/M09 A3026 RMK AO2 SLP254 T00441094 10083 20044 56007
KCMH 222251Z 22011KT 10SM CLR 07/M11 A3026 RMK AO2 SLP255 T00671106
KCMH 222151Z 22013G20KT 10SM CLR 08/M11 A3027 RMK AO2 SLP258 T00781111
KCMH 222051Z 22011KT 10SM CLR 08/M11 A3028 RMK AO2 SLP260 T00831106 56020
KCMH 221951Z 22015KT 10SM CLR 08/M11 A3029 RMK AO2 SLP264 T00831106
KCMH 221851Z 22013KT 10SM CLR 07/M11 A3031 RMK AO2 SLP271 T00721106
KCMH 221751Z 24009KT 10SM CLR 07/M11 A3034 RMK AO2 SLP281 T00671106 10067 21067 58025
KCMH 221651Z 23006KT 10SM CLR 04/M09 A3037 RMK AO2 SLP293 T00441094
KCMH 221551Z 22006KT 10SM CLR 02/M09 A3039 RMK AO2 SLP301 T00221094
KCMH 221451Z 21009KT 10SM CLR M01/M10 A3041 RMK AO2 SLP308 T10061100 50002
KCMH 221351Z 21007KT 10SM FEW250 M03/M10 A3042 RMK AO2 SLP311 T10281100
KCMH 221251Z 18004KT 10SM SCT250 M06/M11 A3041 RMK AO2 SLP309 T10561106
KCMH 221151Z 19004KT 10SM SCT250 M06/M11 A3041 RMK AO2 SLP308 T10611111 11039 21067 51007
KCMH 221051Z 15004KT 10SM BKN250 M06/M11 A3041 RMK AO2 SLP307 T10611111
KCMH 220951Z 16004KT 10SM FEW250 M06/M11 A3040 RMK AO2 SLP302 T10561111
KCMH 220851Z 16003KT 10SM FEW250 M04/M11 A3039 RMK AO2 SLP299 T10441111 58009
KCMH 220751Z 20004KT 10SM FEW250 M05/M11 A3040 RMK AO2 SLP303 T10501111
KCMH 220651Z 20004KT 10SM FEW250 M04/M11 A3041 RMK AO2 SLP307 T10441111
KCMH 220551Z 19004KT 10SM CLR M04/M11 A3041 RMK AO2 SLP310 T10391111 11006 21039 56013
KCMH 220451Z 20003KT 10SM CLR M03/M11 A3043 RMK AO2 SLP313 T10331106 400171106
KCMH 220351Z 19004KT 10SM CLR M03/M11 A3044 RMK AO2 SLP319 T10331106
KCMH 220251Z 18005KT 10SM CLR M03/M11 A3045 RMK AO2 SLP324 T10281106 58010
KCMH 220151Z 21006KT 10SM CLR M02/M11 A3047 RMK AO2 SLP331 T10171111
KCMH 220051Z 21008KT 10SM CLR M01/M12 A3049 RMK AO2 SLP335 T10061117
KCMH 212351Z 20006KT 10SM CLR M01/M12 A3049 RMK AO2 SLP336 T10061117 10017 21011 56013
KCMH 212251Z 22008KT 10SM CLR 01/M12 A3050 RMK AO2 SLP339 T00061122
KCMH 212151Z 22009KT 10SM CLR 02/M13 A3050 RMK AO2 SLP341 T00171128
KCMH 212051Z 24009KT 10SM CLR 02/M13 A3052 RMK AO2 SLP348 T00171128 56025
KCMH 211951Z 21010KT 10SM CLR 01/M13 A3054 RMK AO2 SLP352 T00111133
KCMH 211851Z 25008KT 10SM CLR 01/M12 A3057 RMK AO2 SLP362 T00061122
KCMH 211751Z 22008KT 10SM CLR M01/M13 A3060 RMK AO2 SLP374 T10111133 11006 21100 58012
KCMH 211651Z 25007KT 220V290 10SM CLR M02/M13 A3062 RMK AO2 SLP381 T10171128
KCMH 211551Z 27006KT 10SM CLR M04/M12 A3063 RMK AO2 SLP384 T10391122
KCMH 211451Z 28004KT 10SM CLR M06/M11 A3064 RMK AO2 SLP388 T10561111 53013
KCMH 211351Z 00000KT 9SM CLR M07/M11 A3062 RMK AO2 SLP384 T10721111
KCMH 211251Z 00000KT 9SM CLR M09/M12 A3061 RMK AO2 SLP379 T10891122
KCMH 211151Z 00000KT 10SM CLR M10/M13 A3060 RMK AO2 SLP375 T11001133 11078 21106 53008
KCMH 211051Z 00000KT 10SM CLR M11/M13 A3058 RMK AO2 SLP370 T11061133
KCMH 210951Z 00000KT 10SM CLR M10/M13 A3057 RMK AO2 SLP367 T11001133
KCMH 210851Z 00000KT 10SM CLR M10/M13 A3057 RMK AO2 SLP366 T11001133 56006
KCMH 210751Z 00000KT 10SM CLR M09/M13 A3058 RMK AO2 SLP368 T10941133
KCMH 210651Z 00000KT 10SM CLR M09/M13 A3058 RMK AO2 SLP368 T10891128
KCMH 210551Z 00000KT 10SM CLR M08/M13 A3059 RMK AO2 SLP370 T10781133 11050 21078 51002
KCMH 210451Z 36003KT 10SM CLR M08/M13 A3059 RMK AO2 SLP371 T10781133 410061078
KCMH 210351Z 03003KT 10SM CLR M07/M13 A3059 RMK AO2 SLP371 T10721133
KCMH 210251Z VRB04KT 10SM CLR M07/M14 A3059 RMK AO2 SLP370 T10721139 51015